sensor_id;sensor_type;location;lat;lon;timestamp;P1;durP1;ratioP1;P2;durP2;ratioP2
11665;SDS011;5889;51.350;6.708;2023-11-19T00:02:18;7.43;;;4.50;;
11665;SDS011;5889;51.350;6.708;2023-11-19T00:04:45;4.37;;;3.30;;
11665;SDS011;5889;51.350;6.708;2023-11-19T00:07:12;5.17;;;3.67;;
11665;SDS011;5889;51.350;6.708;2023-11-19T00:09:39;6.13;;;4.33;;
11665;SDS011;5889;51.350;6.708;2023-11-19T00:12:06;10.33;;;5.70;;
11665;SDS011;5889;51.350;6.708;2023-11-19T00:14:35;5.93;;;3.97;;
11665;SDS011;5889;51.350;6.708;2023-11-19T00:17:02;5.90;;;4.67;;
11665;SDS011;5889;51.350;6.708;2023-11-19T00:19:29;9.03;;;6.60;;
11665;SDS011;5889;51.350;6.708;2023-11-19T00:21:56;6.87;;;4.70;;
11665;SDS011;5889;51.350;6.708;2023-11-19T00:24:27;6.37;;;4.60;;
11665;SDS011;5889;51.350;6.708;2023-11-19T00:26:54;5.27;;;4.00;;
11665;SDS011;5889;51.350;6.708;2023-11-19T00:29:21;6.10;;;4.03;;
11665;SDS011;5889;51.350;6.708;2023-11-19T00:31:49;14.83;;;8.57;;
11665;SDS011;5889;51.350;6.708;2023-11-19T00:34:16;8.33;;;6.30;;
11665;SDS011;5889;51.350;6.708;2023-11-19T00:36:46;5.20;;;4.20;;
11665;SDS011;5889;51.350;6.708;2023-11-19T00:39:13;5.50;;;4.20;;
11665;SDS011;5889;51.350;6.708;2023-11-19T00:41:40;6.63;;;4.80;;
11665;SDS011;5889;51.350;6.708;2023-11-19T00:44:07;6.17;;;4.63;;
11665;SDS011;5889;51.350;6.708;2023-11-19T00:46:34;13.87;;;6.93;;
11665;SDS011;5889;51.350;6.708;2023-11-19T00:49:03;6.97;;;4.67;;
11665;SDS011;5889;51.350;6.708;2023-11-19T00:51:30;7.70;;;5.07;;
11665;SDS011;5889;51.350;6.708;2023-11-19T00:53:57;6.17;;;4.93;;
11665;SDS011;5889;51.350;6.708;2023-11-19T00:56:24;7.87;;;4.37;;
11665;SDS011;5889;51.350;6.708;2023-11-19T00:58:50;7.17;;;4.37;;
11665;SDS011;5889;51.350;6.708;2023-11-19T01:01:17;6.67;;;4.30;;
11665;SDS011;5889;51.350;6.708;2023-11-19T01:03:44;5.57;;;4.43;;
11665;SDS011;5889;51.350;6.708;2023-11-19T01:06:12;8.43;;;3.73;;
11665;SDS011;5889;51.350;6.708;2023-11-19T01:08:42;4.03;;;3.63;;
11665;SDS011;5889;51.350;6.708;2023-11-19T01:11:11;3.77;;;3.27;;
11665;SDS011;5889;51.350;6.708;2023-11-19T01:13:46;3.80;;;3.23;;
11665;SDS011;5889;51.350;6.708;2023-11-19T01:16:13;4.03;;;3.10;;
11665;SDS011;5889;51.350;6.708;2023-11-19T01:18:40;5.43;;;3.10;;
11665;SDS011;5889;51.350;6.708;2023-11-19T01:21:07;4.13;;;2.80;;
11665;SDS011;5889;51.350;6.708;2023-11-19T01:23:35;2.93;;;2.63;;
11665;SDS011;5889;51.350;6.708;2023-11-19T01:26:02;4.70;;;2.93;;
11665;SDS011;5889;51.350;6.708;2023-11-19T01:28:30;6.30;;;3.00;;
11665;SDS011;5889;51.350;6.708;2023-11-19T01:30:57;4.00;;;2.80;;
11665;SDS011;5889;51.350;6.708;2023-11-19T01:33:24;5.30;;;2.90;;
11665;SDS011;5889;51.350;6.708;2023-11-19T01:35:50;3.40;;;2.53;;
11665;SDS011;5889;51.350;6.708;2023-11-19T01:38:17;6.13;;;2.97;;
11665;SDS011;5889;51.350;6.708;2023-11-19T01:40:45;5.73;;;2.90;;
11665;SDS011;5889;51.350;6.708;2023-11-19T01:43:12;6.20;;;2.90;;
11665;SDS011;5889;51.350;6.708;2023-11-19T01:45:56;3.63;;;2.43;;
11665;SDS011;5889;51.350;6.708;2023-11-19T01:48:23;4.63;;;2.80;;
11665;SDS011;5889;51.350;6.708;2023-11-19T01:50:50;5.13;;;3.33;;
11665;SDS011;5889;51.350;6.708;2023-11-19T01:53:17;6.40;;;4.17;;
11665;SDS011;5889;51.350;6.708;2023-11-19T01:55:45;7.47;;;4.03;;
11665;SDS011;5889;51.350;6.708;2023-11-19T01:58:13;8.63;;;4.17;;
11665;SDS011;5889;51.350;6.708;2023-11-19T02:00:41;15.87;;;5.93;;
11665;SDS011;5889;51.350;6.708;2023-11-19T02:03:08;18.53;;;6.73;;
11665;SDS011;5889;51.350;6.708;2023-11-19T02:05:35;10.87;;;5.00;;
11665;SDS011;5889;51.350;6.708;2023-11-19T02:08:03;7.33;;;4.20;;
11665;SDS011;5889;51.350;6.708;2023-11-19T02:10:30;9.93;;;3.83;;
11665;SDS011;5889;51.350;6.708;2023-11-19T02:12:58;9.97;;;3.10;;
11665;SDS011;5889;51.350;6.708;2023-11-19T02:15:25;6.73;;;2.50;;
11665;SDS011;5889;51.350;6.708;2023-11-19T02:17:51;5.93;;;2.43;;
11665;SDS011;5889;51.350;6.708;2023-11-19T02:20:18;5.37;;;2.83;;
11665;SDS011;5889;51.350;6.708;2023-11-19T02:22:46;5.20;;;2.73;;
11665;SDS011;5889;51.350;6.708;2023-11-19T02:25:17;6.60;;;2.40;;
11665;SDS011;5889;51.350;6.708;2023-11-19T02:27:53;7.57;;;2.53;;
11665;SDS011;5889;51.350;6.708;2023-11-19T02:30:22;8.97;;;2.70;;
11665;SDS011;5889;51.350;6.708;2023-11-19T02:32:51;7.53;;;2.47;;
11665;SDS011;5889;51.350;6.708;2023-11-19T02:35:19;11.40;;;3.70;;
11665;SDS011;5889;51.350;6.708;2023-11-19T02:37:46;19.43;;;6.43;;
11665;SDS011;5889;51.350;6.708;2023-11-19T02:40:13;16.97;;;9.80;;
11665;SDS011;5889;51.350;6.708;2023-11-19T02:42:40;22.33;;;10.10;;
11665;SDS011;5889;51.350;6.708;2023-11-19T02:45:09;21.37;;;10.20;;
11665;SDS011;5889;51.350;6.708;2023-11-19T02:47:39;26.80;;;10.47;;
11665;SDS011;5889;51.350;6.708;2023-11-19T02:50:07;15.60;;;6.10;;
11665;SDS011;5889;51.350;6.708;2023-11-19T02:52:39;16.73;;;4.10;;
11665;SDS011;5889;51.350;6.708;2023-11-19T02:55:06;10.37;;;4.53;;
11665;SDS011;5889;51.350;6.708;2023-11-19T02:57:35;8.57;;;2.83;;
11665;SDS011;5889;51.350;6.708;2023-11-19T03:00:02;8.10;;;2.83;;
11665;SDS011;5889;51.350;6.708;2023-11-19T03:02:38;12.40;;;3.80;;
11665;SDS011;5889;51.350;6.708;2023-11-19T03:05:09;14.40;;;3.90;;
11665;SDS011;5889;51.350;6.708;2023-11-19T03:07:37;14.67;;;5.57;;
11665;SDS011;5889;51.350;6.708;2023-11-19T03:10:04;21.23;;;4.60;;
11665;SDS011;5889;51.350;6.708;2023-11-19T03:12:31;16.40;;;6.33;;
11665;SDS011;5889;51.350;6.708;2023-11-19T03:14:58;19.70;;;7.73;;
11665;SDS011;5889;51.350;6.708;2023-11-19T03:17:25;16.60;;;5.90;;
11665;SDS011;5889;51.350;6.708;2023-11-19T03:19:54;14.30;;;5.70;;
11665;SDS011;5889;51.350;6.708;2023-11-19T03:22:20;14.57;;;3.97;;
11665;SDS011;5889;51.350;6.708;2023-11-19T03:24:47;12.87;;;3.57;;
11665;SDS011;5889;51.350;6.708;2023-11-19T03:27:17;15.80;;;3.63;;
11665;SDS011;5889;51.350;6.708;2023-11-19T03:29:43;17.53;;;3.97;;
11665;SDS011;5889;51.350;6.708;2023-11-19T03:32:10;17.33;;;4.17;;
11665;SDS011;5889;51.350;6.708;2023-11-19T03:34:38;12.57;;;3.70;;
11665;SDS011;5889;51.350;6.708;2023-11-19T03:37:07;13.17;;;3.87;;
11665;SDS011;5889;51.350;6.708;2023-11-19T03:39:34;14.87;;;3.30;;
11665;SDS011;5889;51.350;6.708;2023-11-19T03:42:00;16.57;;;3.57;;
11665;SDS011;5889;51.350;6.708;2023-11-19T03:44:28;14.73;;;4.20;;
11665;SDS011;5889;51.350;6.708;2023-11-19T03:46:55;16.53;;;4.23;;
11665;SDS011;5889;51.350;6.708;2023-11-19T03:49:21;14.90;;;3.90;;
11665;SDS011;5889;51.350;6.708;2023-11-19T03:51:49;17.20;;;3.63;;
11665;SDS011;5889;51.350;6.708;2023-11-19T03:54:17;16.30;;;4.27;;
11665;SDS011;5889;51.350;6.708;2023-11-19T03:56:45;20.40;;;4.27;;
11665;SDS011;5889;51.350;6.708;2023-11-19T03:59:12;16.53;;;3.73;;
11665;SDS011;5889;51.350;6.708;2023-11-19T04:01:46;15.53;;;3.57;;
11665;SDS011;5889;51.350;6.708;2023-11-19T04:04:12;17.40;;;3.77;;
11665;SDS011;5889;51.350;6.708;2023-11-19T04:06:39;19.50;;;4.37;;
11665;SDS011;5889;51.350;6.708;2023-11-19T04:09:06;18.80;;;4.33;;
11665;SDS011;5889;51.350;6.708;2023-11-19T04:11:35;21.73;;;3.90;;
11665;SDS011;5889;51.350;6.708;2023-11-19T04:14:02;16.60;;;4.27;;
11665;SDS011;5889;51.350;6.708;2023-11-19T04:16:29;17.83;;;3.23;;
11665;SDS011;5889;51.350;6.708;2023-11-19T04:18:56;18.57;;;3.73;;
11665;SDS011;5889;51.350;6.708;2023-11-19T04:21:23;24.93;;;5.07;;
11665;SDS011;5889;51.350;6.708;2023-11-19T04:23:49;16.30;;;3.87;;
11665;SDS011;5889;51.350;6.708;2023-11-19T04:26:16;21.73;;;4.60;;
11665;SDS011;5889;51.350;6.708;2023-11-19T04:28:44;17.20;;;3.63;;
11665;SDS011;5889;51.350;6.708;2023-11-19T04:31:11;17.73;;;3.87;;
11665;SDS011;5889;51.350;6.708;2023-11-19T04:33:38;22.13;;;4.40;;
11665;SDS011;5889;51.350;6.708;2023-11-19T04:36:05;23.40;;;4.27;;
11665;SDS011;5889;51.350;6.708;2023-11-19T04:38:32;21.13;;;4.17;;
11665;SDS011;5889;51.350;6.708;2023-11-19T04:40:59;17.80;;;4.17;;
11665;SDS011;5889;51.350;6.708;2023-11-19T04:43:26;23.40;;;4.33;;
11665;SDS011;5889;51.350;6.708;2023-11-19T04:45:54;21.60;;;3.43;;
11665;SDS011;5889;51.350;6.708;2023-11-19T04:48:21;21.93;;;4.17;;
11665;SDS011;5889;51.350;6.708;2023-11-19T04:50:48;23.00;;;4.93;;
11665;SDS011;5889;51.350;6.708;2023-11-19T04:53:16;16.93;;;3.17;;
11665;SDS011;5889;51.350;6.708;2023-11-19T04:55:43;23.37;;;4.13;;
11665;SDS011;5889;51.350;6.708;2023-11-19T04:58:09;21.57;;;4.03;;
11665;SDS011;5889;51.350;6.708;2023-11-19T05:00:36;26.10;;;4.30;;
11665;SDS011;5889;51.350;6.708;2023-11-19T05:03:04;27.17;;;4.40;;
11665;SDS011;5889;51.350;6.708;2023-11-19T05:05:31;21.63;;;4.00;;
11665;SDS011;5889;51.350;6.708;2023-11-19T05:07:59;25.23;;;4.53;;
11665;SDS011;5889;51.350;6.708;2023-11-19T05:10:26;22.27;;;4.27;;
11665;SDS011;5889;51.350;6.708;2023-11-19T05:12:53;17.47;;;3.90;;
11665;SDS011;5889;51.350;6.708;2023-11-19T05:15:21;21.93;;;3.80;;
11665;SDS011;5889;51.350;6.708;2023-11-19T05:17:48;20.73;;;4.00;;
11665;SDS011;5889;51.350;6.708;2023-11-19T05:20:16;24.93;;;3.97;;
11665;SDS011;5889;51.350;6.708;2023-11-19T05:22:43;25.60;;;4.40;;
11665;SDS011;5889;51.350;6.708;2023-11-19T05:25:11;19.63;;;4.20;;
11665;SDS011;5889;51.350;6.708;2023-11-19T05:27:37;21.33;;;4.97;;
11665;SDS011;5889;51.350;6.708;2023-11-19T05:30:05;24.80;;;4.37;;
11665;SDS011;5889;51.350;6.708;2023-11-19T05:32:33;22.97;;;4.63;;
11665;SDS011;5889;51.350;6.708;2023-11-19T05:35:00;30.60;;;6.17;;
11665;SDS011;5889;51.350;6.708;2023-11-19T05:37:29;25.33;;;5.60;;
11665;SDS011;5889;51.350;6.708;2023-11-19T05:39:56;23.23;;;4.30;;
11665;SDS011;5889;51.350;6.708;2023-11-19T05:42:25;20.63;;;4.43;;
11665;SDS011;5889;51.350;6.708;2023-11-19T05:44:52;22.43;;;4.17;;
11665;SDS011;5889;51.350;6.708;2023-11-19T05:47:19;21.17;;;4.40;;
11665;SDS011;5889;51.350;6.708;2023-11-19T05:49:46;27.47;;;4.53;;
11665;SDS011;5889;51.350;6.708;2023-11-19T05:52:12;18.30;;;4.03;;
11665;SDS011;5889;51.350;6.708;2023-11-19T05:54:40;26.13;;;4.23;;
11665;SDS011;5889;51.350;6.708;2023-11-19T05:57:07;25.63;;;5.37;;
11665;SDS011;5889;51.350;6.708;2023-11-19T05:59:34;20.50;;;3.63;;
11665;SDS011;5889;51.350;6.708;2023-11-19T06:02:01;19.03;;;4.37;;
11665;SDS011;5889;51.350;6.708;2023-11-19T06:04:28;17.30;;;3.60;;
11665;SDS011;5889;51.350;6.708;2023-11-19T06:06:55;19.30;;;3.70;;
11665;SDS011;5889;51.350;6.708;2023-11-19T06:09:22;24.83;;;4.07;;
11665;SDS011;5889;51.350;6.708;2023-11-19T06:11:50;18.63;;;3.83;;
11665;SDS011;5889;51.350;6.708;2023-11-19T06:14:18;19.23;;;4.33;;
11665;SDS011;5889;51.350;6.708;2023-11-19T06:16:45;25.30;;;4.63;;
11665;SDS011;5889;51.350;6.708;2023-11-19T06:19:12;26.33;;;3.93;;
11665;SDS011;5889;51.350;6.708;2023-11-19T06:21:38;30.50;;;4.37;;
11665;SDS011;5889;51.350;6.708;2023-11-19T06:24:05;24.27;;;4.00;;
11665;SDS011;5889;51.350;6.708;2023-11-19T06:26:33;31.10;;;4.40;;
11665;SDS011;5889;51.350;6.708;2023-11-19T06:29:02;19.43;;;4.23;;
11665;SDS011;5889;51.350;6.708;2023-11-19T06:31:29;26.00;;;4.43;;
11665;SDS011;5889;51.350;6.708;2023-11-19T06:33:56;19.93;;;3.80;;
11665;SDS011;5889;51.350;6.708;2023-11-19T06:36:23;20.37;;;3.87;;
11665;SDS011;5889;51.350;6.708;2023-11-19T06:38:51;19.90;;;3.80;;
11665;SDS011;5889;51.350;6.708;2023-11-19T06:41:18;23.13;;;5.13;;
11665;SDS011;5889;51.350;6.708;2023-11-19T06:43:45;21.50;;;3.90;;
11665;SDS011;5889;51.350;6.708;2023-11-19T06:46:16;26.10;;;3.97;;
11665;SDS011;5889;51.350;6.708;2023-11-19T06:48:43;22.30;;;4.33;;
11665;SDS011;5889;51.350;6.708;2023-11-19T06:51:10;25.43;;;3.87;;
11665;SDS011;5889;51.350;6.708;2023-11-19T06:53:37;32.17;;;4.30;;
11665;SDS011;5889;51.350;6.708;2023-11-19T06:56:05;24.00;;;3.97;;
11665;SDS011;5889;51.350;6.708;2023-11-19T06:58:35;22.93;;;4.03;;
11665;SDS011;5889;51.350;6.708;2023-11-19T07:01:02;24.90;;;4.07;;
11665;SDS011;5889;51.350;6.708;2023-11-19T07:03:31;27.57;;;4.47;;
11665;SDS011;5889;51.350;6.708;2023-11-19T07:05:58;25.20;;;4.17;;
11665;SDS011;5889;51.350;6.708;2023-11-19T07:08:24;27.33;;;4.90;;
11665;SDS011;5889;51.350;6.708;2023-11-19T07:10:51;20.07;;;4.07;;
11665;SDS011;5889;51.350;6.708;2023-11-19T07:13:18;22.53;;;4.57;;
11665;SDS011;5889;51.350;6.708;2023-11-19T07:15:46;26.37;;;3.67;;
11665;SDS011;5889;51.350;6.708;2023-11-19T07:18:13;31.80;;;4.37;;
11665;SDS011;5889;51.350;6.708;2023-11-19T07:20:41;22.33;;;4.47;;
11665;SDS011;5889;51.350;6.708;2023-11-19T07:23:08;19.43;;;4.30;;
11665;SDS011;5889;51.350;6.708;2023-11-19T07:25:35;24.10;;;4.33;;
11665;SDS011;5889;51.350;6.708;2023-11-19T07:28:02;23.77;;;4.60;;
11665;SDS011;5889;51.350;6.708;2023-11-19T07:30:29;26.43;;;4.80;;
11665;SDS011;5889;51.350;6.708;2023-11-19T07:32:56;26.90;;;5.40;;
11665;SDS011;5889;51.350;6.708;2023-11-19T07:35:23;23.67;;;4.83;;
11665;SDS011;5889;51.350;6.708;2023-11-19T07:37:51;16.63;;;3.87;;
11665;SDS011;5889;51.350;6.708;2023-11-19T07:40:18;34.23;;;4.87;;
11665;SDS011;5889;51.350;6.708;2023-11-19T07:42:45;23.60;;;4.10;;
11665;SDS011;5889;51.350;6.708;2023-11-19T07:45:11;20.40;;;4.73;;
11665;SDS011;5889;51.350;6.708;2023-11-19T07:47:38;22.20;;;4.33;;
11665;SDS011;5889;51.350;6.708;2023-11-19T07:50:05;24.03;;;4.30;;
11665;SDS011;5889;51.350;6.708;2023-11-19T07:52:32;29.50;;;5.73;;
11665;SDS011;5889;51.350;6.708;2023-11-19T07:55:01;34.57;;;5.23;;
11665;SDS011;5889;51.350;6.708;2023-11-19T07:57:27;24.93;;;4.37;;
11665;SDS011;5889;51.350;6.708;2023-11-19T07:59:56;23.37;;;4.80;;
11665;SDS011;5889;51.350;6.708;2023-11-19T08:02:22;32.73;;;5.60;;
11665;SDS011;5889;51.350;6.708;2023-11-19T08:04:49;28.93;;;5.10;;
11665;SDS011;5889;51.350;6.708;2023-11-19T08:07:17;23.30;;;4.40;;
11665;SDS011;5889;51.350;6.708;2023-11-19T08:09:44;24.30;;;4.63;;
11665;SDS011;5889;51.350;6.708;2023-11-19T08:12:12;27.60;;;5.07;;
11665;SDS011;5889;51.350;6.708;2023-11-19T08:14:39;22.37;;;5.70;;
11665;SDS011;5889;51.350;6.708;2023-11-19T08:17:06;35.93;;;6.00;;
11665;SDS011;5889;51.350;6.708;2023-11-19T08:19:33;23.33;;;4.73;;
11665;SDS011;5889;51.350;6.708;2023-11-19T08:22:00;26.80;;;4.77;;
11665;SDS011;5889;51.350;6.708;2023-11-19T08:24:27;32.53;;;5.90;;
11665;SDS011;5889;51.350;6.708;2023-11-19T08:26:54;40.47;;;7.80;;
11665;SDS011;5889;51.350;6.708;2023-11-19T08:29:22;32.60;;;7.27;;
11665;SDS011;5889;51.350;6.708;2023-11-19T08:31:49;25.63;;;5.07;;
11665;SDS011;5889;51.350;6.708;2023-11-19T08:34:16;27.23;;;5.50;;
11665;SDS011;5889;51.350;6.708;2023-11-19T08:36:43;26.40;;;5.83;;
11665;SDS011;5889;51.350;6.708;2023-11-19T08:39:10;27.07;;;6.03;;
11665;SDS011;5889;51.350;6.708;2023-11-19T08:41:38;25.90;;;5.13;;
11665;SDS011;5889;51.350;6.708;2023-11-19T08:44:06;32.33;;;6.10;;
11665;SDS011;5889;51.350;6.708;2023-11-19T08:46:35;32.63;;;5.63;;
11665;SDS011;5889;51.350;6.708;2023-11-19T08:49:01;22.93;;;5.07;;
11665;SDS011;5889;51.350;6.708;2023-11-19T08:51:28;25.70;;;6.20;;
11665;SDS011;5889;51.350;6.708;2023-11-19T08:53:58;26.73;;;5.30;;
11665;SDS011;5889;51.350;6.708;2023-11-19T08:56:25;30.23;;;6.00;;
11665;SDS011;5889;51.350;6.708;2023-11-19T08:58:56;23.97;;;4.80;;
11665;SDS011;5889;51.350;6.708;2023-11-19T09:01:23;25.30;;;5.67;;
11665;SDS011;5889;51.350;6.708;2023-11-19T09:03:54;29.27;;;5.33;;
11665;SDS011;5889;51.350;6.708;2023-11-19T09:06:22;22.27;;;4.43;;
11665;SDS011;5889;51.350;6.708;2023-11-19T09:08:49;33.43;;;5.53;;
11665;SDS011;5889;51.350;6.708;2023-11-19T09:11:23;32.10;;;5.47;;
11665;SDS011;5889;51.350;6.708;2023-11-19T09:13:50;28.60;;;5.67;;
11665;SDS011;5889;51.350;6.708;2023-11-19T09:16:17;25.97;;;5.23;;
11665;SDS011;5889;51.350;6.708;2023-11-19T09:18:43;35.53;;;5.87;;
11665;SDS011;5889;51.350;6.708;2023-11-19T09:21:14;23.10;;;4.80;;
11665;SDS011;5889;51.350;6.708;2023-11-19T09:23:41;30.10;;;5.83;;
11665;SDS011;5889;51.350;6.708;2023-11-19T09:26:14;31.53;;;4.27;;
11665;SDS011;5889;51.350;6.708;2023-11-19T09:28:41;24.07;;;4.73;;
11665;SDS011;5889;51.350;6.708;2023-11-19T09:31:14;24.90;;;3.73;;
11665;SDS011;5889;51.350;6.708;2023-11-19T09:33:41;29.63;;;4.57;;
11665;SDS011;5889;51.350;6.708;2023-11-19T09:36:08;27.70;;;4.27;;
11665;SDS011;5889;51.350;6.708;2023-11-19T09:38:40;23.87;;;4.93;;
11665;SDS011;5889;51.350;6.708;2023-11-19T09:41:07;23.83;;;4.23;;
11665;SDS011;5889;51.350;6.708;2023-11-19T09:43:37;31.87;;;4.50;;
11665;SDS011;5889;51.350;6.708;2023-11-19T09:46:06;27.40;;;5.47;;
11665;SDS011;5889;51.350;6.708;2023-11-19T09:48:37;22.57;;;4.27;;
11665;SDS011;5889;51.350;6.708;2023-11-19T09:51:05;18.80;;;4.00;;
11665;SDS011;5889;51.350;6.708;2023-11-19T09:53:35;20.97;;;4.10;;
11665;SDS011;5889;51.350;6.708;2023-11-19T09:56:09;27.57;;;4.73;;
11665;SDS011;5889;51.350;6.708;2023-11-19T09:58:38;26.80;;;4.97;;
11665;SDS011;5889;51.350;6.708;2023-11-19T10:01:07;25.00;;;4.47;;
11665;SDS011;5889;51.350;6.708;2023-11-19T10:03:39;26.27;;;5.30;;
11665;SDS011;5889;51.350;6.708;2023-11-19T10:06:10;25.73;;;4.50;;
11665;SDS011;5889;51.350;6.708;2023-11-19T10:08:37;27.23;;;4.47;;
11665;SDS011;5889;51.350;6.708;2023-11-19T10:11:05;30.30;;;5.23;;
11665;SDS011;5889;51.350;6.708;2023-11-19T10:13:33;24.93;;;5.73;;
11665;SDS011;5889;51.350;6.708;2023-11-19T10:16:07;27.13;;;5.70;;
11665;SDS011;5889;51.350;6.708;2023-11-19T10:18:36;27.30;;;4.00;;
11665;SDS011;5889;51.350;6.708;2023-11-19T10:21:03;24.03;;;4.43;;
11665;SDS011;5889;51.350;6.708;2023-11-19T10:23:45;26.33;;;4.47;;
11665;SDS011;5889;51.350;6.708;2023-11-19T10:26:21;20.53;;;5.03;;
11665;SDS011;5889;51.350;6.708;2023-11-19T10:28:49;26.03;;;4.40;;
11665;SDS011;5889;51.350;6.708;2023-11-19T10:31:17;32.43;;;5.00;;
11665;SDS011;5889;51.350;6.708;2023-11-19T10:33:49;29.90;;;5.03;;
11665;SDS011;5889;51.350;6.708;2023-11-19T10:36:16;26.77;;;5.33;;
11665;SDS011;5889;51.350;6.708;2023-11-19T10:38:51;24.90;;;4.47;;
11665;SDS011;5889;51.350;6.708;2023-11-19T10:41:26;19.40;;;4.53;;
11665;SDS011;5889;51.350;6.708;2023-11-19T10:43:54;28.77;;;4.30;;
11665;SDS011;5889;51.350;6.708;2023-11-19T10:46:21;19.37;;;3.97;;
11665;SDS011;5889;51.350;6.708;2023-11-19T10:48:48;27.13;;;4.57;;
11665;SDS011;5889;51.350;6.708;2023-11-19T10:51:18;19.93;;;4.27;;
11665;SDS011;5889;51.350;6.708;2023-11-19T10:53:47;32.20;;;4.70;;
11665;SDS011;5889;51.350;6.708;2023-11-19T10:56:16;24.57;;;4.37;;
11665;SDS011;5889;51.350;6.708;2023-11-19T10:58:44;26.57;;;4.77;;
11665;SDS011;5889;51.350;6.708;2023-11-19T11:01:16;27.53;;;5.70;;
11665;SDS011;5889;51.350;6.708;2023-11-19T11:03:45;23.00;;;4.60;;
11665;SDS011;5889;51.350;6.708;2023-11-19T11:06:14;21.37;;;4.47;;
11665;SDS011;5889;51.350;6.708;2023-11-19T11:08:41;23.63;;;4.73;;
11665;SDS011;5889;51.350;6.708;2023-11-19T11:11:09;24.10;;;4.47;;
11665;SDS011;5889;51.350;6.708;2023-11-19T11:13:42;19.90;;;4.33;;
11665;SDS011;5889;51.350;6.708;2023-11-19T11:16:10;20.30;;;3.80;;
11665;SDS011;5889;51.350;6.708;2023-11-19T11:18:38;21.60;;;4.07;;
11665;SDS011;5889;51.350;6.708;2023-11-19T11:21:05;25.53;;;4.27;;
11665;SDS011;5889;51.350;6.708;2023-11-19T11:23:42;21.27;;;4.77;;
11665;SDS011;5889;51.350;6.708;2023-11-19T11:26:32;25.43;;;5.00;;
11665;SDS011;5889;51.350;6.708;2023-11-19T11:29:20;27.90;;;5.07;;
11665;SDS011;5889;51.350;6.708;2023-11-19T11:31:55;23.87;;;3.70;;
11665;SDS011;5889;51.350;6.708;2023-11-19T11:34:37;24.30;;;4.80;;
11665;SDS011;5889;51.350;6.708;2023-11-19T11:37:17;20.50;;;4.00;;
11665;SDS011;5889;51.350;6.708;2023-11-19T11:39:45;17.97;;;3.37;;
11665;SDS011;5889;51.350;6.708;2023-11-19T11:42:32;22.43;;;4.50;;
11665;SDS011;5889;51.350;6.708;2023-11-19T11:45:03;19.67;;;3.97;;
11665;SDS011;5889;51.350;6.708;2023-11-19T11:50:52;17.67;;;3.47;;
11665;SDS011;5889;51.350;6.708;2023-11-19T11:53:21;18.27;;;3.87;;
11665;SDS011;5889;51.350;6.708;2023-11-19T11:55:52;17.47;;;4.40;;
11665;SDS011;5889;51.350;6.708;2023-11-19T11:58:30;24.30;;;4.07;;
11665;SDS011;5889;51.350;6.708;2023-11-19T12:01:03;14.57;;;3.67;;
11665;SDS011;5889;51.350;6.708;2023-11-19T12:03:32;19.30;;;4.13;;
11665;SDS011;5889;51.350;6.708;2023-11-19T12:06:00;20.63;;;3.83;;
11665;SDS011;5889;51.350;6.708;2023-11-19T12:08:29;14.33;;;3.50;;
11665;SDS011;5889;51.350;6.708;2023-11-19T12:10:57;20.60;;;3.97;;
11665;SDS011;5889;51.350;6.708;2023-11-19T12:13:25;23.50;;;4.53;;
11665;SDS011;5889;51.350;6.708;2023-11-19T12:16:10;19.27;;;3.73;;
11665;SDS011;5889;51.350;6.708;2023-11-19T12:18:38;18.53;;;3.90;;
11665;SDS011;5889;51.350;6.708;2023-11-19T12:21:10;21.10;;;4.17;;
11665;SDS011;5889;51.350;6.708;2023-11-19T12:23:43;18.43;;;4.37;;
11665;SDS011;5889;51.350;6.708;2023-11-19T12:26:36;16.63;;;3.40;;
11665;SDS011;5889;51.350;6.708;2023-11-19T12:29:04;20.43;;;4.23;;
11665;SDS011;5889;51.350;6.708;2023-11-19T12:31:33;23.57;;;4.27;;
11665;SDS011;5889;51.350;6.708;2023-11-19T12:34:08;22.00;;;3.87;;
11665;SDS011;5889;51.350;6.708;2023-11-19T12:36:38;14.87;;;3.33;;
11665;SDS011;5889;51.350;6.708;2023-11-19T12:39:06;16.97;;;3.93;;
11665;SDS011;5889;51.350;6.708;2023-11-19T12:41:48;17.10;;;4.23;;
11665;SDS011;5889;51.350;6.708;2023-11-19T12:44:19;17.33;;;3.73;;
11665;SDS011;5889;51.350;6.708;2023-11-19T12:46:46;18.90;;;3.43;;
11665;SDS011;5889;51.350;6.708;2023-11-19T12:49:12;16.33;;;4.13;;
11665;SDS011;5889;51.350;6.708;2023-11-19T12:51:41;14.07;;;3.23;;
11665;SDS011;5889;51.350;6.708;2023-11-19T12:54:07;12.23;;;3.17;;
11665;SDS011;5889;51.350;6.708;2023-11-19T12:56:35;15.50;;;3.20;;
11665;SDS011;5889;51.350;6.708;2023-11-19T12:59:12;17.03;;;3.93;;
11665;SDS011;5889;51.350;6.708;2023-11-19T13:01:38;15.20;;;4.17;;
11665;SDS011;5889;51.350;6.708;2023-11-19T13:04:15;18.90;;;3.73;;
11665;SDS011;5889;51.350;6.708;2023-11-19T13:06:45;19.03;;;3.20;;
11665;SDS011;5889;51.350;6.708;2023-11-19T13:09:21;25.83;;;4.43;;
11665;SDS011;5889;51.350;6.708;2023-11-19T13:11:49;15.27;;;3.80;;
11665;SDS011;5889;51.350;6.708;2023-11-19T13:14:16;18.43;;;4.13;;
11665;SDS011;5889;51.350;6.708;2023-11-19T13:16:43;21.03;;;4.03;;
11665;SDS011;5889;51.350;6.708;2023-11-19T13:19:10;21.47;;;3.93;;
11665;SDS011;5889;51.350;6.708;2023-11-19T13:21:37;20.80;;;4.10;;
11665;SDS011;5889;51.350;6.708;2023-11-19T13:24:06;20.93;;;4.13;;
11665;SDS011;5889;51.350;6.708;2023-11-19T13:26:33;23.27;;;4.20;;
11665;SDS011;5889;51.350;6.708;2023-11-19T13:29:00;20.07;;;3.70;;
11665;SDS011;5889;51.350;6.708;2023-11-19T13:31:27;16.03;;;3.57;;
11665;SDS011;5889;51.350;6.708;2023-11-19T13:33:54;17.20;;;3.57;;
11665;SDS011;5889;51.350;6.708;2023-11-19T13:36:24;19.53;;;4.03;;
11665;SDS011;5889;51.350;6.708;2023-11-19T13:38:51;15.93;;;3.57;;
11665;SDS011;5889;51.350;6.708;2023-11-19T13:41:25;18.53;;;3.47;;
11665;SDS011;5889;51.350;6.708;2023-11-19T13:43:51;23.40;;;4.33;;
11665;SDS011;5889;51.350;6.708;2023-11-19T13:46:18;20.00;;;4.20;;
11665;SDS011;5889;51.350;6.708;2023-11-19T13:48:46;14.43;;;3.30;;
11665;SDS011;5889;51.350;6.708;2023-11-19T13:51:14;18.47;;;3.80;;
11665;SDS011;5889;51.350;6.708;2023-11-19T13:53:41;14.77;;;3.70;;
11665;SDS011;5889;51.350;6.708;2023-11-19T13:56:08;16.00;;;3.53;;
11665;SDS011;5889;51.350;6.708;2023-11-19T13:58:36;21.97;;;3.83;;
11665;SDS011;5889;51.350;6.708;2023-11-19T14:01:03;12.83;;;3.50;;
11665;SDS011;5889;51.350;6.708;2023-11-19T14:03:31;17.30;;;3.73;;
11665;SDS011;5889;51.350;6.708;2023-11-19T14:05:58;20.93;;;4.23;;
11665;SDS011;5889;51.350;6.708;2023-11-19T14:08:25;22.63;;;4.23;;
11665;SDS011;5889;51.350;6.708;2023-11-19T14:10:52;25.30;;;5.23;;
11665;SDS011;5889;51.350;6.708;2023-11-19T14:13:20;20.13;;;4.33;;
11665;SDS011;5889;51.350;6.708;2023-11-19T14:15:48;26.20;;;4.63;;
11665;SDS011;5889;51.350;6.708;2023-11-19T14:18:15;17.87;;;3.63;;
11665;SDS011;5889;51.350;6.708;2023-11-19T14:20:42;21.67;;;4.33;;
11665;SDS011;5889;51.350;6.708;2023-11-19T14:23:09;20.97;;;4.53;;
11665;SDS011;5889;51.350;6.708;2023-11-19T14:25:36;18.53;;;3.87;;
11665;SDS011;5889;51.350;6.708;2023-11-19T14:28:03;18.37;;;4.27;;
11665;SDS011;5889;51.350;6.708;2023-11-19T14:30:30;16.57;;;4.43;;
11665;SDS011;5889;51.350;6.708;2023-11-19T14:32:58;16.90;;;3.93;;
11665;SDS011;5889;51.350;6.708;2023-11-19T14:35:24;17.20;;;4.30;;
11665;SDS011;5889;51.350;6.708;2023-11-19T14:37:51;17.33;;;4.57;;
11665;SDS011;5889;51.350;6.708;2023-11-19T14:40:18;22.87;;;4.87;;
11665;SDS011;5889;51.350;6.708;2023-11-19T14:42:45;21.27;;;4.07;;
11665;SDS011;5889;51.350;6.708;2023-11-19T14:45:12;20.83;;;5.17;;
11665;SDS011;5889;51.350;6.708;2023-11-19T14:47:38;16.13;;;4.50;;
11665;SDS011;5889;51.350;6.708;2023-11-19T14:50:07;23.37;;;5.03;;
11665;SDS011;5889;51.350;6.708;2023-11-19T14:52:34;16.90;;;4.10;;
11665;SDS011;5889;51.350;6.708;2023-11-19T14:55:01;19.00;;;4.90;;
11665;SDS011;5889;51.350;6.708;2023-11-19T14:57:28;22.00;;;5.70;;
11665;SDS011;5889;51.350;6.708;2023-11-19T14:59:54;25.50;;;4.67;;
11665;SDS011;5889;51.350;6.708;2023-11-19T15:02:21;16.07;;;3.90;;